createdAt,value
2023-10-25T00:01:42.640Z,9.38
2023-10-25T00:04:10.019Z,9.34
2023-10-25T00:06:37.187Z,9.40
2023-10-25T00:09:04.471Z,9.35
2023-10-25T00:11:31.435Z,9.36
2023-10-25T00:13:58.591Z,9.29
2023-10-25T00:16:25.841Z,9.24
2023-10-25T00:18:52.942Z,9.22
2023-10-25T00:21:19.921Z,9.19
2023-10-25T00:23:46.889Z,9.23
2023-10-25T00:26:14.212Z,9.21
2023-10-25T00:28:50.298Z,9.25
2023-10-25T00:31:17.383Z,9.29
2023-10-25T00:33:44.548Z,9.26
2023-10-25T00:36:11.658Z,9.24
2023-10-25T00:38:38.645Z,9.25
2023-10-25T00:41:05.634Z,9.24
2023-10-25T00:43:32.611Z,9.24
2023-10-25T00:46:14.178Z,9.22
2023-10-25T00:48:45.387Z,9.18
2023-10-25T00:51:14.277Z,9.25
2023-10-25T00:53:51.018Z,9.22
2023-10-25T00:56:18.595Z,9.21
2023-10-25T00:58:49.528Z,9.28
2023-10-25T01:01:17.116Z,9.27
2023-10-25T01:03:44.243Z,9.29
2023-10-25T01:06:11.690Z,9.30
2023-10-25T01:08:38.994Z,9.22
2023-10-25T01:11:06.625Z,9.28
2023-10-25T01:13:33.850Z,9.25
2023-10-25T01:16:01.024Z,9.32
2023-10-25T01:18:28.722Z,9.34
2023-10-25T01:20:56.067Z,9.31
2023-10-25T01:23:23.354Z,9.36
2023-10-25T01:25:50.372Z,9.35
2023-10-25T01:28:17.442Z,9.31
2023-10-25T01:30:45.097Z,9.30
2023-10-25T01:33:12.121Z,9.33
2023-10-25T01:35:39.638Z,9.37
2023-10-25T01:38:06.664Z,9.35
2023-10-25T01:40:33.686Z,9.39
2023-10-25T01:43:00.697Z,9.40
2023-10-25T01:45:31.764Z,9.40
2023-10-25T01:48:00.152Z,9.43
2023-10-25T01:50:27.303Z,9.36
2023-10-25T01:52:54.332Z,9.41
2023-10-25T01:55:21.307Z,9.45
2023-10-25T01:57:48.326Z,9.45
2023-10-25T02:00:16.947Z,9.42
2023-10-25T02:02:44.255Z,9.51
2023-10-25T02:05:11.349Z,9.51
2023-10-25T02:07:38.566Z,9.54
2023-10-25T02:10:07.939Z,9.56
2023-10-25T02:12:34.949Z,9.56
2023-10-25T02:15:01.963Z,9.61
2023-10-25T02:17:28.970Z,9.61
2023-10-25T02:19:55.933Z,9.64
2023-10-25T02:22:23.860Z,9.65
2023-10-25T02:24:51.414Z,9.66
2023-10-25T02:27:18.499Z,9.66
2023-10-25T02:29:45.552Z,9.71
2023-10-25T02:32:12.559Z,9.73
2023-10-25T02:34:39.571Z,9.72
2023-10-25T02:37:06.934Z,9.75
2023-10-25T02:39:34.041Z,9.72
2023-10-25T02:42:01.080Z,9.70
2023-10-25T02:44:28.201Z,9.79
2023-10-25T02:46:58.078Z,9.83
2023-10-25T02:49:25.515Z,9.81
2023-10-25T02:51:53.003Z,9.79
2023-10-25T02:54:20.310Z,9.84
2023-10-25T02:56:47.292Z,9.86
2023-10-25T02:59:14.327Z,9.83
2023-10-25T03:01:41.710Z,9.86
2023-10-25T03:04:09.416Z,9.90
2023-10-25T03:06:36.580Z,9.93
2023-10-25T03:09:05.483Z,9.93
2023-10-25T03:11:32.511Z,9.94
2023-10-25T03:13:59.567Z,9.95
2023-10-25T03:16:26.705Z,9.95
2023-10-25T03:18:53.802Z,9.95
2023-10-25T03:21:20.945Z,9.90
2023-10-25T03:23:49.759Z,9.85
2023-10-25T03:26:17.582Z,9.89
2023-10-25T03:28:44.601Z,9.95
2023-10-25T03:31:12.075Z,9.97
2023-10-25T03:33:39.494Z,9.93
2023-10-25T03:36:06.887Z,9.91
2023-10-25T03:38:35.730Z,9.91
2023-10-25T03:41:08.193Z,9.97
2023-10-25T03:43:36.745Z,9.89
2023-10-25T03:46:08.823Z,9.99
2023-10-25T03:48:38.462Z,9.99
2023-10-25T03:51:06.867Z,10.00
2023-10-25T03:53:38.605Z,10.04
2023-10-25T03:56:06.000Z,10.01
2023-10-25T03:58:33.583Z,9.98
2023-10-25T04:01:02.834Z,9.76
2023-10-25T04:03:30.632Z,9.88
2023-10-25T04:05:57.914Z,9.91
2023-10-25T04:08:25.370Z,9.92
2023-10-25T04:10:57.434Z,9.92
2023-10-25T04:13:25.327Z,9.96
2023-10-25T04:16:00.961Z,9.98
2023-10-25T04:18:31.277Z,9.95
2023-10-25T04:21:00.416Z,10.00
2023-10-25T04:23:29.996Z,10.00
2023-10-25T04:26:11.263Z,9.93
2023-10-25T04:28:41.432Z,9.92
2023-10-25T04:31:09.609Z,10.00
2023-10-25T04:33:38.487Z,9.98
2023-10-25T04:36:06.942Z,9.96
2023-10-25T04:38:34.101Z,9.96
2023-10-25T04:41:01.083Z,9.88
2023-10-25T04:43:30.807Z,9.89
2023-10-25T04:45:58.624Z,9.88
2023-10-25T04:48:25.952Z,9.83
2023-10-25T04:50:52.940Z,9.82
2023-10-25T04:53:19.917Z,9.75
2023-10-25T04:55:47.611Z,9.75
2023-10-25T04:58:15.319Z,9.67
2023-10-25T05:00:42.832Z,9.73
2023-10-25T05:03:12.930Z,9.75
2023-10-25T05:05:40.947Z,9.75
2023-10-25T05:08:09.510Z,9.75
2023-10-25T05:10:37.228Z,9.76
2023-10-25T05:13:04.745Z,9.74
2023-10-25T05:15:32.752Z,9.73
2023-10-25T05:18:00.222Z,9.69
2023-10-25T05:20:27.685Z,9.71
2023-10-25T05:22:57.031Z,9.67
2023-10-25T05:25:24.478Z,9.78
2023-10-25T05:27:51.993Z,9.75
2023-10-25T05:30:20.979Z,9.76
2023-10-25T05:32:50.768Z,9.81
2023-10-25T05:35:18.260Z,9.79
2023-10-25T05:37:45.628Z,9.74
2023-10-25T05:40:13.701Z,9.71
2023-10-25T05:42:50.049Z,9.59
2023-10-25T05:45:17.663Z,9.59
2023-10-25T05:47:45.196Z,9.47
2023-10-25T05:50:13.243Z,9.48
2023-10-25T05:52:46.089Z,9.51
2023-10-25T05:55:17.748Z,9.43
2023-10-25T05:57:47.586Z,9.51
2023-10-25T06:00:15.569Z,9.58
2023-10-25T06:02:45.159Z,9.64
2023-10-25T06:05:14.853Z,9.67
2023-10-25T06:07:43.159Z,9.67
2023-10-25T06:10:11.082Z,9.73
2023-10-25T06:12:38.916Z,9.72
2023-10-25T06:15:06.810Z,9.74
2023-10-25T06:17:34.916Z,9.79
2023-10-25T06:20:02.336Z,9.71
2023-10-25T06:22:29.622Z,9.76
2023-10-25T06:24:56.664Z,9.79
2023-10-25T06:27:23.742Z,9.87
2023-10-25T06:29:50.778Z,9.91
2023-10-25T06:32:17.863Z,9.91
2023-10-25T06:34:44.958Z,9.90
2023-10-25T06:37:12.599Z,9.92
2023-10-25T06:39:40.179Z,9.93
2023-10-25T06:42:08.025Z,9.90
2023-10-25T06:44:35.524Z,9.95
2023-10-25T06:47:04.410Z,9.93
2023-10-25T06:49:31.853Z,9.94
2023-10-25T06:52:02.338Z,9.98
2023-10-25T06:54:29.798Z,10.03
2023-10-25T06:56:57.731Z,10.00
2023-10-25T06:59:25.190Z,10.01
2023-10-25T07:02:06.965Z,10.09
2023-10-25T07:04:35.760Z,10.05
2023-10-25T07:07:10.782Z,10.03
2023-10-25T07:09:38.190Z,9.97
2023-10-25T07:12:07.984Z,10.06
2023-10-25T07:14:35.025Z,10.06
2023-10-25T07:17:02.097Z,10.12
2023-10-25T07:19:29.143Z,10.19
2023-10-25T07:21:56.153Z,10.13
2023-10-25T07:24:23.223Z,10.22
2023-10-25T07:26:50.210Z,10.25
2023-10-25T07:29:17.210Z,10.30
2023-10-25T07:31:44.357Z,10.29
2023-10-25T07:34:11.417Z,10.38
2023-10-25T07:36:38.404Z,10.54
2023-10-25T07:39:05.752Z,10.60
2023-10-25T07:41:32.740Z,10.70
2023-10-25T07:44:00.540Z,10.76
2023-10-25T07:46:27.636Z,10.78
2023-10-25T07:48:54.786Z,10.86
2023-10-25T07:51:21.774Z,10.80
2023-10-25T07:53:48.749Z,10.75
2023-10-25T07:58:45.819Z,10.78
2023-10-25T08:01:14.253Z,10.80
2023-10-25T08:03:41.648Z,10.77
2023-10-25T08:06:09.021Z,10.74
2023-10-25T08:08:36.364Z,10.85
2023-10-25T08:11:06.062Z,10.89
2023-10-25T08:13:35.415Z,10.95
2023-10-25T08:16:03.993Z,11.06
2023-10-25T08:18:33.299Z,11.14
2023-10-25T08:21:01.210Z,11.20
2023-10-25T08:23:29.420Z,11.30
2023-10-25T08:26:02.272Z,11.18
2023-10-25T08:28:29.394Z,11.06
2023-10-25T08:30:56.490Z,11.04
2023-10-25T08:33:23.702Z,11.10
2023-10-25T08:36:01.681Z,11.14
2023-10-25T08:38:28.703Z,11.13
2023-10-25T08:41:05.710Z,11.25
2023-10-25T08:43:37.635Z,11.48
2023-10-25T08:46:05.992Z,11.60
2023-10-25T08:48:34.531Z,11.71
2023-10-25T08:51:02.950Z,11.86
2023-10-25T08:53:31.594Z,11.97
2023-10-25T08:55:59.923Z,11.92
2023-10-25T08:58:27.772Z,12.06
2023-10-25T09:00:59.174Z,12.25
2023-10-25T09:03:32.061Z,12.36
2023-10-25T09:06:07.349Z,12.34
2023-10-25T09:08:36.587Z,12.58
2023-10-25T09:11:10.249Z,12.77
2023-10-25T09:13:40.670Z,12.77
2023-10-25T09:16:13.108Z,12.87
2023-10-25T09:18:41.963Z,12.88
2023-10-25T09:21:13.854Z,12.98
2023-10-25T09:23:42.125Z,12.93
2023-10-25T09:26:17.269Z,12.88
2023-10-25T09:28:48.537Z,12.88
2023-10-25T09:31:28.616Z,12.88
2023-10-25T09:34:02.103Z,12.98
2023-10-25T09:36:29.814Z,13.05
2023-10-25T09:38:57.989Z,13.12
2023-10-25T09:41:28.490Z,13.21
2023-10-25T09:44:01.156Z,13.21
2023-10-25T09:46:32.857Z,13.22
2023-10-25T09:49:10.440Z,13.38
2023-10-25T09:52:29.620Z,13.58
2023-10-25T09:55:18.061Z,13.63
2023-10-25T09:57:46.463Z,13.77
2023-10-25T10:00:15.450Z,13.82
2023-10-25T10:03:03.942Z,13.89
2023-10-25T10:05:35.834Z,13.97
2023-10-25T10:08:29.777Z,14.00
2023-10-25T10:11:05.749Z,14.04
2023-10-25T10:13:32.981Z,13.99
2023-10-25T10:16:10.950Z,14.12
2023-10-25T10:18:40.289Z,14.15
2023-10-25T10:21:10.700Z,14.07
2023-10-25T10:23:51.907Z,14.08
2023-10-25T10:26:48.299Z,14.12
2023-10-25T10:29:33.799Z,13.95
2023-10-25T10:32:03.306Z,13.97
2023-10-25T10:34:58.718Z,13.97
2023-10-25T10:37:31.047Z,14.04
2023-10-25T10:40:01.014Z,14.11
2023-10-25T10:42:30.109Z,14.20
2023-10-25T10:44:58.608Z,14.42
2023-10-25T10:47:45.288Z,14.42
2023-10-25T10:50:19.626Z,14.57
2023-10-25T10:52:48.985Z,14.56
2023-10-25T10:55:19.753Z,14.53
2023-10-25T10:57:58.353Z,14.54
2023-10-25T11:00:33.840Z,14.28
2023-10-25T11:03:09.101Z,14.36
2023-10-25T11:05:40.333Z,14.25
2023-10-25T11:08:15.617Z,14.40
2023-10-25T11:10:43.086Z,14.21
2023-10-25T11:13:11.353Z,14.33
2023-10-25T11:15:40.289Z,14.30
2023-10-25T11:18:11.399Z,14.26
2023-10-25T11:20:41.080Z,14.35
2023-10-25T11:23:09.344Z,14.41
2023-10-25T11:25:36.339Z,14.48
2023-10-25T11:28:05.822Z,14.67
2023-10-25T11:30:36.380Z,14.52
2023-10-25T11:33:03.777Z,14.46
2023-10-25T11:35:30.950Z,14.47
2023-10-25T11:38:00.712Z,14.64
2023-10-25T11:40:47.199Z,14.73
2023-10-25T11:43:15.745Z,14.97
2023-10-25T11:45:43.241Z,15.05
2023-10-25T11:48:11.860Z,15.21
2023-10-25T11:50:43.816Z,15.27
2023-10-25T11:53:15.296Z,15.54
2023-10-25T11:55:42.605Z,15.78
2023-10-25T11:58:16.850Z,15.87
2023-10-25T12:00:44.057Z,16.03
2023-10-25T12:03:11.183Z,16.05
2023-10-25T12:05:39.052Z,16.13
2023-10-25T12:08:06.110Z,15.95
2023-10-25T12:10:33.187Z,15.82
2023-10-25T12:13:00.223Z,15.80
2023-10-25T12:15:27.262Z,15.70
2023-10-25T12:17:54.392Z,15.53
2023-10-25T12:20:28.161Z,15.50
2023-10-25T12:22:57.402Z,15.43
2023-10-25T12:25:25.872Z,15.55
2023-10-25T12:27:52.942Z,15.60
2023-10-25T12:30:20.127Z,15.44
2023-10-25T12:32:47.310Z,15.50
2023-10-25T12:35:14.416Z,15.54
2023-10-25T12:37:41.478Z,15.58
2023-10-25T12:40:09.899Z,15.45
2023-10-25T12:42:36.926Z,15.40
2023-10-25T12:45:04.743Z,15.37
2023-10-25T12:47:31.890Z,15.37
2023-10-25T12:49:59.042Z,15.21
2023-10-25T12:52:26.096Z,15.36
2023-10-25T12:54:55.671Z,15.40
2023-10-25T12:57:22.676Z,15.38
2023-10-25T12:59:49.693Z,15.44
2023-10-25T13:02:16.705Z,15.37
2023-10-25T13:04:44.268Z,15.44
2023-10-25T13:07:11.570Z,15.35
2023-10-25T13:09:38.629Z,15.37
2023-10-25T13:12:09.763Z,15.19
2023-10-25T13:14:37.249Z,15.21
2023-10-25T13:17:16.924Z,15.14
2023-10-25T13:19:47.103Z,14.92
2023-10-25T13:22:15.877Z,14.98
2023-10-25T13:24:43.542Z,14.97
2023-10-25T13:27:10.919Z,14.91
2023-10-25T13:29:39.784Z,15.02
2023-10-25T13:32:07.851Z,15.05
2023-10-25T13:34:35.142Z,14.96
2023-10-25T13:37:03.505Z,14.88
2023-10-25T13:39:30.714Z,14.81
2023-10-25T13:41:57.809Z,14.64
2023-10-25T13:44:25.896Z,14.61
2023-10-25T13:46:52.892Z,14.52
2023-10-25T13:49:19.924Z,14.47
2023-10-25T13:51:46.972Z,14.02
2023-10-25T13:54:13.997Z,13.81
2023-10-25T13:56:41.067Z,13.85
2023-10-25T13:59:08.059Z,13.78
2023-10-25T14:01:35.134Z,13.76
2023-10-25T14:04:02.475Z,13.74
2023-10-25T14:06:29.677Z,13.63
2023-10-25T14:08:56.761Z,13.79
2023-10-25T14:11:23.973Z,13.79
2023-10-25T14:13:51.663Z,13.53
2023-10-25T14:16:18.892Z,13.39
2023-10-25T14:18:47.131Z,13.27
2023-10-25T14:21:17.217Z,13.27
2023-10-25T14:23:46.311Z,13.26
2023-10-25T14:26:13.844Z,13.20
2023-10-25T14:28:40.919Z,13.25
2023-10-25T14:31:07.959Z,13.25
2023-10-25T14:33:35.133Z,13.22
2023-10-25T14:36:02.481Z,13.01
2023-10-25T14:38:29.862Z,12.85
2023-10-25T14:40:56.937Z,12.94
2023-10-25T14:43:23.977Z,13.04
2023-10-25T14:45:51.007Z,13.11
2023-10-25T14:48:18.229Z,13.07
2023-10-25T14:50:45.380Z,13.17
2023-10-25T14:53:12.380Z,13.15
2023-10-25T14:55:39.392Z,13.21
2023-10-25T14:58:06.872Z,13.05
2023-10-25T15:00:34.461Z,13.10
2023-10-25T15:03:02.072Z,13.17
2023-10-25T15:05:38.590Z,13.10
2023-10-25T15:08:05.661Z,12.97
2023-10-25T15:10:37.034Z,13.04
2023-10-25T15:13:04.288Z,12.99
2023-10-25T15:15:31.357Z,12.89
2023-10-25T15:17:58.721Z,12.92
2023-10-25T15:20:25.907Z,13.07
2023-10-25T15:22:54.153Z,13.17
2023-10-25T15:25:24.688Z,13.19
2023-10-25T15:27:52.279Z,13.07
2023-10-25T15:30:19.638Z,13.02
2023-10-25T15:32:46.912Z,13.01
2023-10-25T15:35:14.057Z,13.03
2023-10-25T15:37:41.754Z,12.89
2023-10-25T15:40:17.456Z,12.87
2023-10-25T15:42:46.524Z,12.72
2023-10-25T15:45:14.534Z,12.74
2023-10-25T15:47:42.576Z,12.76
2023-10-25T15:50:11.778Z,12.78
2023-10-25T15:52:40.232Z,12.74
2023-10-25T15:55:10.941Z,12.65
2023-10-25T15:57:37.929Z,12.65
2023-10-25T16:00:05.950Z,12.60
2023-10-25T16:02:32.975Z,12.58
2023-10-25T16:05:00.032Z,12.50
2023-10-25T16:07:27.081Z,12.37
2023-10-25T16:09:54.149Z,12.36
2023-10-25T16:12:21.130Z,12.39
2023-10-25T16:14:48.371Z,12.40
2023-10-25T16:17:15.421Z,12.23
2023-10-25T16:19:42.512Z,12.22
2023-10-25T16:22:10.033Z,12.20
2023-10-25T16:24:37.026Z,12.20
2023-10-25T16:27:04.864Z,12.26
2023-10-25T16:29:32.560Z,12.28
2023-10-25T16:31:59.743Z,12.07
2023-10-25T16:34:26.913Z,12.15
2023-10-25T16:37:04.088Z,12.05
2023-10-25T16:39:32.637Z,12.10
2023-10-25T16:42:00.718Z,12.05
2023-10-25T16:44:28.082Z,11.99
2023-10-25T16:46:55.104Z,12.10
2023-10-25T16:49:22.084Z,12.03
2023-10-25T16:51:49.220Z,12.01
2023-10-25T16:54:16.367Z,12.01
2023-10-25T16:56:43.980Z,12.08
2023-10-25T16:59:11.329Z,12.01
2023-10-25T17:01:39.650Z,12.00
2023-10-25T17:04:07.121Z,12.08
2023-10-25T17:06:34.496Z,12.04
2023-10-25T17:09:01.785Z,11.92
2023-10-25T17:11:29.537Z,12.06
2023-10-25T17:13:56.560Z,12.10
2023-10-25T17:16:23.596Z,12.05
2023-10-25T17:18:50.684Z,12.11
2023-10-25T17:21:20.797Z,12.16
2023-10-25T17:23:47.843Z,12.19
2023-10-25T17:26:14.912Z,12.22
2023-10-25T17:28:42.072Z,12.22
2023-10-25T17:31:09.139Z,12.23
2023-10-25T17:33:36.336Z,12.23
2023-10-25T17:36:06.458Z,12.20
2023-10-25T17:38:34.160Z,12.19
2023-10-25T17:41:02.675Z,12.06
2023-10-25T17:43:29.833Z,12.11
2023-10-25T17:48:29.199Z,11.93
2023-10-25T17:50:56.761Z,11.45
2023-10-25T17:53:24.021Z,11.15
2023-10-25T17:55:51.457Z,11.05
2023-10-25T17:58:18.662Z,11.09
2023-10-25T18:00:47.414Z,11.08
2023-10-25T18:03:15.536Z,11.15
2023-10-25T18:05:43.721Z,11.06
2023-10-25T18:08:12.904Z,11.14
2023-10-25T18:10:44.223Z,11.14
2023-10-25T18:13:12.186Z,11.12
2023-10-25T18:15:40.007Z,11.18
2023-10-25T18:18:08.249Z,11.20
2023-10-25T18:20:36.810Z,11.24
2023-10-25T18:23:03.946Z,11.24
2023-10-25T18:25:31.039Z,11.19
2023-10-25T18:27:59.836Z,11.20
2023-10-25T18:31:56.058Z,11.14
2023-10-25T18:33:20.384Z,11.09
2023-10-25T18:35:49.568Z,11.17
2023-10-25T18:38:18.481Z,11.15
2023-10-25T18:40:57.471Z,11.19
2023-10-25T18:43:26.293Z,11.14
2023-10-25T18:45:55.719Z,11.20
2023-10-25T18:48:23.161Z,11.12
2023-10-25T18:50:50.411Z,11.12
2023-10-25T18:53:17.522Z,11.11
2023-10-25T18:55:46.788Z,11.09
2023-10-25T18:58:22.968Z,11.04
2023-10-25T19:00:49.953Z,11.07
2023-10-25T19:03:17.057Z,11.02
2023-10-25T19:06:29.130Z,11.05
2023-10-25T19:08:37.948Z,10.98
2023-10-25T19:11:07.285Z,10.92
2023-10-25T19:13:35.700Z,10.99
2023-10-25T19:16:03.597Z,11.03
2023-10-25T19:18:34.112Z,11.01
2023-10-25T19:21:02.644Z,10.97
2023-10-25T19:23:30.230Z,10.99
2023-10-25T19:25:57.355Z,10.99
2023-10-25T19:28:24.368Z,10.98
2023-10-25T19:30:51.809Z,10.94
2023-10-25T19:33:19.118Z,10.86
2023-10-25T19:35:46.222Z,10.88
2023-10-25T19:38:13.242Z,11.01
2023-10-25T19:40:40.212Z,11.01
2023-10-25T19:43:09.077Z,11.01
2023-10-25T19:45:41.546Z,11.00
2023-10-25T19:48:09.118Z,11.01
2023-10-25T19:50:36.572Z,10.98
2023-10-25T19:53:03.677Z,11.01
2023-10-25T19:55:30.716Z,10.84
2023-10-25T19:57:57.880Z,10.99
2023-10-25T20:00:24.851Z,11.06
2023-10-25T20:02:52.125Z,11.05
2023-10-25T20:05:19.394Z,10.91
2023-10-25T20:07:46.413Z,10.82
2023-10-25T20:10:13.636Z,11.00
2023-10-25T20:12:41.244Z,10.98
2023-10-25T20:15:10.113Z,10.97
2023-10-25T20:17:37.358Z,10.87
2023-10-25T20:20:04.641Z,10.77
2023-10-25T20:22:31.644Z,10.86
2023-10-25T20:25:00.061Z,10.78
2023-10-25T20:27:28.203Z,10.72
2023-10-25T20:29:55.280Z,10.72
2023-10-25T20:32:23.249Z,10.71
2023-10-25T20:34:50.789Z,10.63
2023-10-25T20:37:18.202Z,10.63
2023-10-25T20:39:45.496Z,10.54
2023-10-25T20:42:12.651Z,10.63
2023-10-25T20:44:39.646Z,10.58
2023-10-25T20:47:06.914Z,10.61
2023-10-25T20:49:33.898Z,10.59
2023-10-25T20:52:00.914Z,10.61
2023-10-25T20:54:27.887Z,10.57
2023-10-25T20:56:55.056Z,10.48
2023-10-25T20:59:22.226Z,10.46
2023-10-25T21:01:49.300Z,10.44
2023-10-25T21:04:16.365Z,10.28
2023-10-25T21:06:43.500Z,10.28
2023-10-25T21:09:10.521Z,10.25
2023-10-25T21:11:37.600Z,10.22
2023-10-25T21:14:04.848Z,10.22
2023-10-25T21:16:33.115Z,10.23
2023-10-25T21:19:00.631Z,10.21
2023-10-25T21:21:27.799Z,10.07
2023-10-25T21:23:54.852Z,10.12
2023-10-25T21:26:22.115Z,10.13
2023-10-25T21:28:51.085Z,10.05
2023-10-25T21:31:18.314Z,10.11
2023-10-25T21:33:45.354Z,10.07
2023-10-25T21:36:13.016Z,10.06
2023-10-25T21:38:40.515Z,10.00
2023-10-25T21:41:13.775Z,10.04
2023-10-25T21:43:43.766Z,9.95
2023-10-25T21:46:11.021Z,9.92
2023-10-25T21:48:38.125Z,9.96
2023-10-25T21:51:07.420Z,9.95
2023-10-25T21:53:35.083Z,9.93
2023-10-25T21:56:24.385Z,9.91
2023-10-25T21:59:48.314Z,9.83
2023-10-25T22:01:36.993Z,9.83
2023-10-25T22:04:04.466Z,9.80
2023-10-25T22:06:32.228Z,9.81
2023-10-25T22:08:59.395Z,9.79
2023-10-25T22:11:26.488Z,9.76
2023-10-25T22:13:53.453Z,9.79
2023-10-25T22:16:20.535Z,9.72
2023-10-25T22:18:47.576Z,9.75
2023-10-25T22:21:14.638Z,9.67
2023-10-25T22:23:41.762Z,9.65
2023-10-25T22:26:08.793Z,9.70
2023-10-25T22:28:35.869Z,9.72
2023-10-25T22:31:06.284Z,9.76
2023-10-25T22:33:33.523Z,9.72
2023-10-25T22:36:06.017Z,9.75
2023-10-25T22:38:34.481Z,9.73
2023-10-25T22:41:09.664Z,9.71
2023-10-25T22:43:40.152Z,9.70
2023-10-25T22:46:08.802Z,9.68
2023-10-25T22:48:36.880Z,9.73
2023-10-25T22:51:04.479Z,9.78
2023-10-25T22:53:31.477Z,9.83
2023-10-25T22:56:04.560Z,9.80
2023-10-25T22:58:31.679Z,9.90
2023-10-25T23:00:58.704Z,9.87
2023-10-25T23:03:25.864Z,9.84
2023-10-25T23:05:52.880Z,9.92
2023-10-25T23:08:19.895Z,9.90
2023-10-25T23:10:46.984Z,9.95
2023-10-25T23:13:15.704Z,9.93
2023-10-25T23:15:42.976Z,9.95
2023-10-25T23:18:10.092Z,9.92
2023-10-25T23:20:37.367Z,9.93
2023-10-25T23:23:04.429Z,9.94
2023-10-25T23:25:31.477Z,9.87
2023-10-25T23:27:58.446Z,9.90
2023-10-25T23:30:25.472Z,9.96
2023-10-25T23:32:52.547Z,9.94
2023-10-25T23:35:19.617Z,9.90
2023-10-25T23:37:46.668Z,9.94
2023-10-25T23:40:13.866Z,9.95
2023-10-25T23:42:40.928Z,9.98
2023-10-25T23:45:08.951Z,10.03
2023-10-25T23:47:35.983Z,10.00
2023-10-25T23:50:02.985Z,10.04
2023-10-25T23:52:30.004Z,10.02
2023-10-25T23:54:57.342Z,10.05
2023-10-25T23:57:24.665Z,10.05
2023-10-25T23:59:51.767Z,10.02
